Главная страница
METAR-TAF:

METAR-TAF

Аэропорты :

Doylestown Airport

Doylestown, Пенсильвания, США

широта: 40-19-48N, долгота: 075-07-21W, высота над уровнем моря: 120 м

Текущие метеонаблюдения

Эта сводка был подготовлена 1 час и 4 минут назад, в 10:54 UTC
Ветер 3 Узел от юго-юго-восточный
Температура 12°C
Влажность 94%
Давление 1015 hPa
Видимость: 16.1 км
ясное небо

METAR: KDYL 241054Z AUTO 16003KT 10SM CLR 12/11 A2998 RMK AO2 SLP149 T01220106

Время: 07:58 (11:58 UTC)


TAF: отсутствует

Метеонаблюдения и прогнозы для более 4000 аэропортов (сводки METAR и TAF).

Имеющиеся станции представлены на карте желтыми и красными точками.

Чтобы увидеть название станции, наведите на нее мышь.

Затем щелкните, чтобы увидеть метеонаблюдения и метеопрогнозы.

Управление картой: чтобы увеличить масштаб, щелкните зеленые кнопки с черным крестиком; чтобы уменьшить масштаб, щелкните зеленую кнопку с тире; для просмотра соседних карт щелкайте зеленые стрелки.


METAR-TAF: